createdAt,value
2023-02-16T00:00:07.348Z,101908.88
2023-02-16T00:03:15.474Z,101893.28
2023-02-16T00:06:18.388Z,101904.56
2023-02-16T00:09:22.065Z,101903.66
2023-02-16T00:12:42.911Z,101895.03
2023-02-16T00:15:46.027Z,101894.19
2023-02-16T00:18:49.331Z,101892.44
2023-02-16T00:21:53.159Z,101888.97
2023-02-16T00:24:55.340Z,101890.69
2023-02-16T00:27:57.952Z,101895.88
2023-02-16T00:31:00.349Z,101895.06
2023-02-16T00:34:31.139Z,101890.72
2023-02-16T00:37:33.444Z,101879.47
2023-02-16T00:40:36.394Z,101878.59
2023-02-16T00:43:41.306Z,101882.94
2023-02-16T00:46:45.419Z,101882.94
2023-02-16T00:49:53.058Z,101887.28
2023-02-16T00:52:58.435Z,101882.94
2023-02-16T00:56:00.889Z,101882.97
2023-02-16T00:59:07.797Z,101878.66
2023-02-16T01:02:13.113Z,101868.25
2023-02-16T01:05:16.652Z,101863.03
2023-02-16T01:08:37.432Z,101863.94
2023-02-16T01:11:39.929Z,101868.25
2023-02-16T01:14:48.734Z,101859.59
2023-02-16T01:17:51.687Z,101863.06
2023-02-16T01:20:57.035Z,101860.47
2023-02-16T01:24:00.641Z,101856.13
2023-02-16T01:27:03.107Z,101860.47
2023-02-16T01:30:17.671Z,101861.34
2023-02-16T01:33:21.021Z,101858.75
2023-02-16T01:36:29.686Z,101851.81
2023-02-16T01:39:31.961Z,101850.09
2023-02-16T01:42:44.399Z,101845.75
2023-02-16T01:45:54.484Z,101844.00
2023-02-16T01:48:57.037Z,101840.53
2023-02-16T01:52:11.593Z,101833.63
2023-02-16T01:55:22.660Z,101834.47
2023-02-16T01:58:34.452Z,101839.69
2023-02-16T02:01:41.859Z,101845.75
2023-02-16T02:05:10.594Z,101838.81
2023-02-16T02:08:38.470Z,101831.03
2023-02-16T02:11:56.834Z,101818.06
2023-02-16T02:14:59.884Z,101814.59
2023-02-16T02:18:03.434Z,101811.09
2023-02-16T02:21:59.557Z,101812.00
2023-02-16T02:25:47.738Z,101805.94
2023-02-16T02:28:56.586Z,101809.41
2023-02-16T02:32:13.268Z,101798.16
2023-02-16T02:35:21.011Z,101805.94
2023-02-16T02:38:45.100Z,101804.22
2023-02-16T02:42:07.285Z,101807.66
2023-02-16T02:45:22.817Z,101808.53
2023-02-16T02:48:31.343Z,101805.06
2023-02-16T02:51:33.904Z,101806.81
2023-02-16T02:54:59.566Z,101808.53
2023-02-16T02:58:21.748Z,101801.59
2023-02-16T03:01:25.499Z,101805.06
2023-02-16T03:04:31.159Z,101807.66
2023-02-16T03:07:46.649Z,101797.28
2023-02-16T03:11:13.064Z,101800.75
2023-02-16T03:14:20.937Z,101808.53
2023-02-16T03:17:49.344Z,101803.34
2023-02-16T03:21:11.198Z,101805.94
2023-02-16T03:24:42.189Z,101801.59
2023-02-16T03:28:03.792Z,101801.59
2023-02-16T03:31:08.463Z,101794.69
2023-02-16T03:34:11.989Z,101791.22
2023-02-16T03:37:15.070Z,101785.16
2023-02-16T03:40:30.085Z,101788.63
2023-02-16T03:43:32.511Z,101788.63
2023-02-16T03:46:35.507Z,101794.69
2023-02-16T03:49:37.852Z,101789.50
2023-02-16T03:52:40.500Z,101786.03
2023-02-16T03:55:45.456Z,101780.81
2023-02-16T03:58:48.057Z,101786.88
2023-02-16T04:01:50.430Z,101792.09
2023-02-16T04:04:53.018Z,101786.03
2023-02-16T04:07:55.445Z,101782.56
2023-02-16T04:10:58.004Z,101785.16
2023-02-16T04:14:00.237Z,101790.34
2023-02-16T04:17:03.859Z,101783.41
2023-02-16T04:20:07.784Z,101782.56
2023-02-16T04:23:10.341Z,101786.03
2023-02-16T04:26:12.660Z,101783.41
2023-02-16T04:29:16.060Z,101786.03
2023-02-16T04:32:18.449Z,101779.09
2023-02-16T04:35:21.613Z,101785.16
2023-02-16T04:38:24.266Z,101791.19
2023-02-16T04:41:27.416Z,101788.59
2023-02-16T04:44:29.515Z,101781.69
2023-02-16T04:47:32.162Z,101782.56
2023-02-16T04:50:34.428Z,101793.81
2023-02-16T04:53:37.126Z,101791.22
2023-02-16T04:56:39.885Z,101790.34
2023-02-16T04:59:42.644Z,101790.34
2023-02-16T05:02:44.982Z,101786.00
2023-02-16T05:05:47.576Z,101788.59
2023-02-16T05:08:50.154Z,101787.75
2023-02-16T05:12:11.463Z,101783.41
2023-02-16T05:15:13.679Z,101785.16
2023-02-16T05:18:16.832Z,101778.22
2023-02-16T05:21:31.419Z,101782.56
2023-02-16T05:24:34.992Z,101790.34
2023-02-16T05:27:40.667Z,101785.16
2023-02-16T05:30:43.560Z,101779.97
2023-02-16T05:33:45.971Z,101786.03
2023-02-16T05:36:52.352Z,101777.34
2023-02-16T05:39:54.747Z,101781.69
2023-02-16T05:42:57.207Z,101777.38
2023-02-16T05:45:59.632Z,101782.56
2023-02-16T05:49:02.678Z,101787.75
2023-02-16T05:52:05.160Z,101780.81
2023-02-16T05:55:08.121Z,101780.81
2023-02-16T05:58:10.518Z,101783.44
2023-02-16T06:01:13.742Z,101788.63
2023-02-16T06:04:16.824Z,101779.97
2023-02-16T06:07:19.021Z,101771.31
2023-02-16T06:10:21.684Z,101773.03
2023-02-16T06:13:25.171Z,101761.78
2023-02-16T06:16:30.022Z,101762.63
2023-02-16T06:19:32.439Z,101771.25
2023-02-16T06:22:35.061Z,101772.06
2023-02-16T06:25:37.509Z,101777.25
2023-02-16T06:28:40.327Z,101781.56
2023-02-16T06:31:42.555Z,101779.75
2023-02-16T06:34:45.450Z,101778.59
2023-02-16T06:37:47.749Z,101782.84
2023-02-16T06:40:54.430Z,101779.34
2023-02-16T06:44:05.894Z,101781.09
2023-02-16T06:47:08.397Z,101783.81
2023-02-16T06:50:11.312Z,101783.81
2023-02-16T06:53:13.865Z,101777.62
2023-02-16T06:56:16.120Z,101771.53
2023-02-16T06:59:18.613Z,101772.44
2023-02-16T07:02:20.930Z,101777.88
2023-02-16T07:05:23.750Z,101770.78
2023-02-16T07:08:27.546Z,101765.41
2023-02-16T07:11:30.278Z,101765.69
2023-02-16T07:14:33.111Z,101772.66
2023-02-16T07:17:35.662Z,101771.78
2023-02-16T07:20:38.138Z,101768.34
2023-02-16T07:23:40.789Z,101765.53
2023-02-16T07:26:43.307Z,101765.47
2023-02-16T07:29:46.880Z,101767.91
2023-02-16T07:32:49.088Z,101768.72
2023-02-16T07:35:51.723Z,101773.78
2023-02-16T07:38:55.219Z,101773.38
2023-02-16T07:41:57.755Z,101762.41
2023-02-16T07:45:01.274Z,101756.97
2023-02-16T07:48:04.095Z,101759.37
2023-02-16T07:51:06.640Z,101760.16
2023-02-16T07:54:09.590Z,101759.97
2023-02-16T07:57:11.879Z,101766.88
2023-02-16T08:00:14.680Z,101754.66
2023-02-16T08:03:17.150Z,101764.31
2023-02-16T08:06:20.447Z,101760.22
2023-02-16T08:09:22.853Z,101757.91
2023-02-16T08:12:25.680Z,101761.06
2023-02-16T08:15:28.219Z,101762.09
2023-02-16T08:18:30.757Z,101759.03
2023-02-16T08:21:34.578Z,101762.75
2023-02-16T08:24:37.414Z,101765.84
2023-02-16T08:27:40.036Z,101772.94
2023-02-16T08:30:42.848Z,101769.91
2023-02-16T08:33:46.861Z,101765.53
2023-02-16T08:36:54.111Z,101769.94
2023-02-16T08:40:00.628Z,101776.37
2023-02-16T08:43:03.771Z,101772.75
2023-02-16T08:46:08.144Z,101772.44
2023-02-16T08:49:11.165Z,101774.94
2023-02-16T08:52:13.891Z,101769.59
2023-02-16T08:55:17.407Z,101780.47
2023-02-16T08:58:20.100Z,101777.09
2023-02-16T09:01:23.860Z,101775.91
2023-02-16T09:04:31.196Z,101773.66
2023-02-16T09:07:35.126Z,101774.50
2023-02-16T09:10:37.965Z,101771.94
2023-02-16T09:13:41.127Z,101768.91
2023-02-16T09:16:46.799Z,101765.50
2023-02-16T09:19:49.033Z,101769.25
2023-02-16T09:22:52.749Z,101768.16
2023-02-16T09:25:55.276Z,101761.38
2023-02-16T09:28:59.163Z,101756.72
2023-02-16T09:32:02.702Z,101762.06
2023-02-16T09:35:05.693Z,101767.72
2023-02-16T09:38:08.809Z,101759.81
2023-02-16T09:41:32.661Z,101762.47
2023-02-16T09:44:53.312Z,101764.25
2023-02-16T09:47:59.296Z,101764.66
2023-02-16T09:51:04.335Z,101758.19
2023-02-16T09:54:26.558Z,101754.56
2023-02-16T09:57:41.893Z,101755.00
2023-02-16T10:00:44.739Z,101748.13
2023-02-16T10:03:54.255Z,101748.81
2023-02-16T10:07:23.981Z,101746.03
2023-02-16T10:10:44.072Z,101749.66
2023-02-16T10:13:54.110Z,101746.38
2023-02-16T10:17:15.339Z,101740.50
2023-02-16T10:20:43.476Z,101740.00
2023-02-16T10:23:51.255Z,101736.53
2023-02-16T10:27:15.803Z,101735.88
2023-02-16T10:30:20.999Z,101737.16
2023-02-16T10:33:24.208Z,101725.84
2023-02-16T10:36:51.864Z,101739.44
2023-02-16T10:40:12.764Z,101735.59
2023-02-16T10:43:25.064Z,101726.84
2023-02-16T10:46:34.268Z,101718.84
2023-02-16T10:49:37.212Z,101721.63
2023-02-16T10:52:42.553Z,101711.31
2023-02-16T10:55:45.775Z,101713.66
2023-02-16T10:58:48.773Z,101703.09
2023-02-16T11:01:57.876Z,101704.37
2023-02-16T11:05:00.788Z,101702.13
2023-02-16T11:08:04.902Z,101694.00
2023-02-16T11:11:10.621Z,101691.63
2023-02-16T11:14:26.836Z,101693.22
2023-02-16T11:17:31.999Z,101693.16
2023-02-16T11:20:41.226Z,101687.78
2023-02-16T11:23:57.333Z,101673.78
2023-02-16T11:27:18.378Z,101671.22
2023-02-16T11:30:36.440Z,101674.56
2023-02-16T11:33:40.909Z,101658.44
2023-02-16T11:36:46.086Z,101655.34
2023-02-16T11:39:53.011Z,101657.06
2023-02-16T11:42:58.084Z,101652.12
2023-02-16T11:46:12.332Z,101644.88
2023-02-16T11:49:31.603Z,101649.84
2023-02-16T11:52:34.067Z,101647.25
2023-02-16T11:55:39.692Z,101639.31
2023-02-16T11:58:42.126Z,101635.38
2023-02-16T12:02:17.298Z,101628.06
2023-02-16T12:05:54.590Z,101615.28
2023-02-16T12:09:19.353Z,101618.28
2023-02-16T12:12:37.134Z,101606.72
2023-02-16T12:15:48.233Z,101608.53
2023-02-16T12:18:53.440Z,101598.94
2023-02-16T12:22:18.749Z,101596.47
2023-02-16T12:25:34.732Z,101582.19
2023-02-16T12:28:42.306Z,101570.53
2023-02-16T12:32:14.503Z,101566.25
2023-02-16T12:35:32.627Z,101566.16
2023-02-16T12:38:43.950Z,101569.97
2023-02-16T12:41:50.395Z,101562.34
2023-02-16T12:44:56.959Z,101563.31
2023-02-16T12:48:16.744Z,101557.50
2023-02-16T12:51:23.859Z,101549.47
2023-02-16T12:54:45.634Z,101543.19
2023-02-16T12:57:59.805Z,101545.25
2023-02-16T13:01:09.981Z,101535.72
2023-02-16T13:04:15.502Z,101533.94
2023-02-16T13:07:39.703Z,101535.25
2023-02-16T13:11:14.733Z,101528.25
2023-02-16T13:14:20.716Z,101527.78
2023-02-16T13:17:34.575Z,101515.28
2023-02-16T13:20:41.341Z,101519.72
2023-02-16T13:24:03.546Z,101510.03
2023-02-16T13:27:39.362Z,101503.44
2023-02-16T13:31:04.717Z,101496.69
2023-02-16T13:34:46.641Z,101486.12
2023-02-16T13:38:04.037Z,101489.66
2023-02-16T13:41:29.803Z,101478.81
2023-02-16T13:44:44.941Z,101471.75
2023-02-16T13:47:48.604Z,101478.81
2023-02-16T13:51:04.271Z,101468.47
2023-02-16T13:54:11.901Z,101475.88
2023-02-16T13:57:34.839Z,101475.34
2023-02-16T14:00:43.947Z,101483.78
2023-02-16T14:03:46.511Z,101465.62
2023-02-16T14:07:15.075Z,101472.34
2023-02-16T14:10:57.373Z,101468.97
2023-02-16T14:13:59.596Z,101467.63
2023-02-16T14:17:23.260Z,101464.09
2023-02-16T14:20:29.622Z,101455.97
2023-02-16T14:23:36.988Z,101465.03
2023-02-16T14:26:54.510Z,101464.66
2023-02-16T14:30:00.637Z,101459.16
2023-02-16T14:33:12.065Z,101464.19
2023-02-16T14:36:20.840Z,101466.59
2023-02-16T14:39:24.706Z,101452.28
2023-02-16T14:42:34.929Z,101452.53
2023-02-16T14:46:03.764Z,101458.38
2023-02-16T14:49:34.717Z,101461.50
2023-02-16T14:52:44.276Z,101455.75
2023-02-16T14:56:21.265Z,101455.81
2023-02-16T14:59:46.625Z,101460.13
2023-02-16T15:02:55.115Z,101464.91
2023-02-16T15:05:59.997Z,101458.38
2023-02-16T15:09:06.451Z,101460.81
2023-02-16T15:12:21.652Z,101460.56
2023-02-16T15:15:46.893Z,101459.09
2023-02-16T15:18:53.310Z,101459.78
2023-02-16T15:22:23.502Z,101465.16
2023-02-16T15:25:29.424Z,101461.78
2023-02-16T15:28:39.798Z,101458.78
2023-02-16T15:31:42.365Z,101456.09
2023-02-16T15:34:46.136Z,101451.63
2023-02-16T15:37:48.555Z,101449.59
2023-02-16T15:40:59.507Z,101456.66
2023-02-16T15:44:05.061Z,101467.53
2023-02-16T15:47:24.200Z,101454.75
2023-02-16T15:50:26.950Z,101463.44
2023-02-16T15:53:35.901Z,101456.50
2023-02-16T15:56:47.266Z,101468.75
2023-02-16T15:59:57.438Z,101463.94
2023-02-16T16:03:01.582Z,101462.81
2023-02-16T16:06:08.529Z,101459.59
2023-02-16T16:09:26.086Z,101458.34
2023-02-16T16:12:29.109Z,101463.56
2023-02-16T16:15:34.152Z,101457.63
2023-02-16T16:18:39.613Z,101462.97
2023-02-16T16:21:54.483Z,101464.81
2023-02-16T16:24:57.161Z,101458.66
2023-02-16T16:27:59.882Z,101459.19
2023-02-16T16:31:10.006Z,101458.03
2023-02-16T16:34:40.420Z,101465.75
2023-02-16T16:37:43.018Z,101469.09
2023-02-16T16:40:51.561Z,101471.44
2023-02-16T16:43:56.545Z,101470.94
2023-02-16T16:47:22.728Z,101472.81
2023-02-16T16:51:55.965Z,101478.16
2023-02-16T16:54:58.823Z,101478.16
2023-02-16T16:58:05.544Z,101484.87
2023-02-16T17:01:09.779Z,101477.53
2023-02-16T17:04:11.943Z,101476.50
2023-02-16T17:07:14.433Z,101472.28
2023-02-16T17:10:18.672Z,101472.28
2023-02-16T17:13:21.499Z,101466.53
2023-02-16T17:16:28.465Z,101464.69
2023-02-16T17:19:32.621Z,101473.38
2023-02-16T17:22:34.788Z,101469.31
2023-02-16T17:25:37.248Z,101471.19
2023-02-16T17:28:39.532Z,101479.50
2023-02-16T17:31:42.321Z,101478.06
2023-02-16T17:34:44.667Z,101474.34
2023-02-16T17:37:47.330Z,101466.41
2023-02-16T17:40:54.712Z,101466.09
2023-02-16T17:43:57.210Z,101464.22
2023-02-16T17:46:59.359Z,101461.91
2023-02-16T17:50:01.992Z,101452.62
2023-02-16T17:53:04.223Z,101459.47
2023-02-16T17:56:12.123Z,101451.94
2023-02-16T17:59:15.513Z,101458.31
2023-02-16T18:02:18.024Z,101454.88
2023-02-16T18:05:20.640Z,101450.78
2023-02-16T18:08:23.367Z,101451.03
2023-02-16T18:11:26.066Z,101449.06
2023-02-16T18:14:28.242Z,101449.16
2023-02-16T18:17:30.768Z,101454.69
2023-02-16T18:20:33.644Z,101461.31
2023-02-16T18:23:36.510Z,101452.94
2023-02-16T18:26:38.669Z,101457.56
2023-02-16T18:29:41.483Z,101463.84
2023-02-16T18:32:45.563Z,101472.03
2023-02-16T18:35:52.550Z,101472.72
2023-02-16T18:38:54.795Z,101466.56
2023-02-16T18:41:57.534Z,101478.91
2023-02-16T18:44:59.726Z,101476.53
2023-02-16T18:48:02.301Z,101476.44
2023-02-16T18:51:09.622Z,101473.16
2023-02-16T18:54:12.097Z,101475.91
2023-02-16T18:57:15.145Z,101467.97
2023-02-16T19:00:20.121Z,101468.09
2023-02-16T19:03:22.449Z,101468.31
2023-02-16T19:06:25.260Z,101465.28
2023-02-16T19:09:27.649Z,101465.47
2023-02-16T19:12:30.738Z,101468.47
2023-02-16T19:15:34.949Z,101478.16
2023-02-16T19:18:37.893Z,101483.06
2023-02-16T19:21:40.281Z,101481.88
2023-02-16T19:24:42.917Z,101469.88
2023-02-16T19:27:45.171Z,101467.37
2023-02-16T19:30:49.348Z,101473.31
2023-02-16T19:33:52.906Z,101469.31
2023-02-16T19:36:55.457Z,101469.19
2023-02-16T19:39:57.936Z,101466.19
2023-02-16T19:43:00.512Z,101474.34
2023-02-16T19:46:04.626Z,101462.34
2023-02-16T19:49:08.104Z,101470.53
2023-02-16T19:52:10.305Z,101477.94
2023-02-16T19:55:12.988Z,101477.75
2023-02-16T19:58:15.328Z,101480.91
2023-02-16T20:01:20.847Z,101483.12
2023-02-16T20:04:23.610Z,101474.09
2023-02-16T20:07:25.892Z,101471.84
2023-02-16T20:10:28.658Z,101475.38
2023-02-16T20:13:31.125Z,101484.19
2023-02-16T20:16:34.407Z,101478.25
2023-02-16T20:19:36.762Z,101481.03
2023-02-16T20:22:39.719Z,101486.22
2023-02-16T20:25:42.013Z,101488.53
2023-02-16T20:28:45.653Z,101490.03
2023-02-16T20:31:54.393Z,101489.19
2023-02-16T20:34:59.065Z,101496.47
2023-02-16T20:38:01.432Z,101485.19
2023-02-16T20:41:05.362Z,101491.34
2023-02-16T20:44:08.004Z,101490.28
2023-02-16T20:47:11.356Z,101484.91
2023-02-16T20:50:13.804Z,101486.38
2023-02-16T20:53:16.244Z,101490.56
2023-02-16T20:56:22.697Z,101484.44
2023-02-16T20:59:25.674Z,101479.28
2023-02-16T21:02:28.000Z,101481.37
2023-02-16T21:05:30.875Z,101478.56
2023-02-16T21:08:33.135Z,101481.19
2023-02-16T21:11:37.606Z,101480.34
2023-02-16T21:14:39.759Z,101469.03
2023-02-16T21:17:42.321Z,101471.50
2023-02-16T21:20:44.930Z,101473.56
2023-02-16T21:23:50.875Z,101476.41
2023-02-16T21:26:53.414Z,101466.06
2023-02-16T21:29:56.198Z,101470.53
2023-02-16T21:32:58.503Z,101477.03
2023-02-16T21:36:08.894Z,101474.22
2023-02-16T21:39:11.561Z,101474.41
2023-02-16T21:42:14.353Z,101482.16
2023-02-16T21:45:18.014Z,101470.97
2023-02-16T21:48:38.891Z,101477.31
2023-02-16T21:51:42.763Z,101478.34
2023-02-16T21:55:04.057Z,101473.28
2023-02-16T21:58:08.017Z,101477.06
2023-02-16T22:01:11.224Z,101475.84
2023-02-16T22:04:17.074Z,101466.91
2023-02-16T22:07:19.332Z,101462.59
2023-02-16T22:10:21.895Z,101458.41
2023-02-16T22:13:24.113Z,101452.88
2023-02-16T22:16:29.272Z,101458.94
2023-02-16T22:19:31.469Z,101464.22
2023-02-16T22:22:34.505Z,101461.94
2023-02-16T22:25:40.019Z,101463.56
2023-02-16T22:28:43.034Z,101465.16
2023-02-16T22:31:49.383Z,101468.63
2023-02-16T22:34:53.757Z,101455.56
2023-02-16T22:37:56.096Z,101457.37
2023-02-16T22:40:59.108Z,101450.97
2023-02-16T22:44:01.456Z,101437.06
2023-02-16T22:47:04.397Z,101450.16
2023-02-16T22:50:07.438Z,101442.38
2023-02-16T22:53:10.371Z,101450.53
2023-02-16T22:56:17.670Z,101435.84
2023-02-16T22:59:20.305Z,101426.94
2023-02-16T23:02:22.564Z,101427.31
2023-02-16T23:05:25.752Z,101430.22
2023-02-16T23:08:28.348Z,101429.50
2023-02-16T23:11:33.536Z,101436.53
2023-02-16T23:14:38.874Z,101429.56
2023-02-16T23:17:41.801Z,101428.28
2023-02-16T23:20:43.994Z,101424.66
2023-02-16T23:23:48.252Z,101430.34
2023-02-16T23:26:51.852Z,101426.41
2023-02-16T23:29:54.798Z,101427.84
2023-02-16T23:32:59.592Z,101433.37
2023-02-16T23:36:02.300Z,101434.44
2023-02-16T23:39:08.352Z,101423.44
2023-02-16T23:42:11.253Z,101426.03
2023-02-16T23:45:13.440Z,101426.09
2023-02-16T23:48:16.706Z,101426.13
2023-02-16T23:51:18.905Z,101433.94
2023-02-16T23:54:21.824Z,101431.19
2023-02-16T23:57:24.163Z,101433.44
